sensor_id;sensor_type;location;lat;lon;timestamp;P1;durP1;ratioP1;P2;durP2;ratioP2
18693;SDS011;9477;51.414;10.362;2022-12-07T00:01:06;15.43;;;10.40;;
18693;SDS011;9477;51.414;10.362;2022-12-07T00:03:10;16.53;;;10.87;;
18693;SDS011;9477;51.414;10.362;2022-12-07T00:05:13;15.33;;;10.13;;
18693;SDS011;9477;51.414;10.362;2022-12-07T00:07:16;14.60;;;10.70;;
18693;SDS011;9477;51.414;10.362;2022-12-07T00:09:25;16.63;;;10.37;;
18693;SDS011;9477;51.414;10.362;2022-12-07T00:11:29;14.70;;;9.93;;
18693;SDS011;9477;51.414;10.362;2022-12-07T00:13:32;15.73;;;10.53;;
18693;SDS011;9477;51.414;10.362;2022-12-07T00:15:36;14.50;;;9.27;;
18693;SDS011;9477;51.414;10.362;2022-12-07T00:17:39;14.70;;;10.43;;
18693;SDS011;9477;51.414;10.362;2022-12-07T00:19:41;14.97;;;9.83;;
18693;SDS011;9477;51.414;10.362;2022-12-07T00:21:44;15.57;;;10.03;;
18693;SDS011;9477;51.414;10.362;2022-12-07T00:23:48;13.83;;;10.03;;
18693;SDS011;9477;51.414;10.362;2022-12-07T00:25:52;15.27;;;10.57;;
18693;SDS011;9477;51.414;10.362;2022-12-07T00:27:56;14.80;;;10.23;;
18693;SDS011;9477;51.414;10.362;2022-12-07T00:29:59;15.47;;;10.20;;
18693;SDS011;9477;51.414;10.362;2022-12-07T00:32:02;15.07;;;9.70;;
18693;SDS011;9477;51.414;10.362;2022-12-07T00:34:06;17.57;;;10.00;;
18693;SDS011;9477;51.414;10.362;2022-12-07T00:36:10;14.17;;;9.70;;
18693;SDS011;9477;51.414;10.362;2022-12-07T00:38:14;13.87;;;9.83;;
18693;SDS011;9477;51.414;10.362;2022-12-07T00:40:17;16.33;;;9.80;;
18693;SDS011;9477;51.414;10.362;2022-12-07T00:42:20;12.00;;;9.37;;
18693;SDS011;9477;51.414;10.362;2022-12-07T00:44:24;13.30;;;9.13;;
18693;SDS011;9477;51.414;10.362;2022-12-07T00:46:28;13.77;;;9.73;;
18693;SDS011;9477;51.414;10.362;2022-12-07T00:48:31;13.63;;;9.40;;
18693;SDS011;9477;51.414;10.362;2022-12-07T00:50:34;14.07;;;9.60;;
18693;SDS011;9477;51.414;10.362;2022-12-07T00:52:37;13.37;;;9.17;;
18693;SDS011;9477;51.414;10.362;2022-12-07T00:54:40;13.20;;;9.13;;
18693;SDS011;9477;51.414;10.362;2022-12-07T00:56:43;13.47;;;8.83;;
18693;SDS011;9477;51.414;10.362;2022-12-07T00:58:49;12.17;;;9.07;;
18693;SDS011;9477;51.414;10.362;2022-12-07T01:00:54;12.43;;;8.43;;
18693;SDS011;9477;51.414;10.362;2022-12-07T01:03:02;12.13;;;8.77;;
18693;SDS011;9477;51.414;10.362;2022-12-07T01:05:06;13.83;;;9.07;;
18693;SDS011;9477;51.414;10.362;2022-12-07T01:07:09;12.07;;;8.80;;
18693;SDS011;9477;51.414;10.362;2022-12-07T01:09:12;14.13;;;9.40;;
18693;SDS011;9477;51.414;10.362;2022-12-07T01:11:16;11.93;;;8.47;;
18693;SDS011;9477;51.414;10.362;2022-12-07T01:13:20;12.70;;;9.40;;
18693;SDS011;9477;51.414;10.362;2022-12-07T01:15:23;11.33;;;8.43;;
18693;SDS011;9477;51.414;10.362;2022-12-07T01:17:28;11.20;;;8.50;;
18693;SDS011;9477;51.414;10.362;2022-12-07T01:19:31;10.80;;;8.43;;
18693;SDS011;9477;51.414;10.362;2022-12-07T01:21:34;10.67;;;8.47;;
18693;SDS011;9477;51.414;10.362;2022-12-07T01:23:39;10.43;;;8.30;;
18693;SDS011;9477;51.414;10.362;2022-12-07T01:25:42;13.13;;;9.20;;
18693;SDS011;9477;51.414;10.362;2022-12-07T01:27:46;11.87;;;8.70;;
18693;SDS011;9477;51.414;10.362;2022-12-07T01:29:48;12.47;;;8.60;;
18693;SDS011;9477;51.414;10.362;2022-12-07T01:31:53;12.33;;;8.90;;
18693;SDS011;9477;51.414;10.362;2022-12-07T01:33:58;11.10;;;7.93;;
18693;SDS011;9477;51.414;10.362;2022-12-07T01:36:02;12.03;;;8.97;;
18693;SDS011;9477;51.414;10.362;2022-12-07T01:38:05;12.07;;;8.37;;
18693;SDS011;9477;51.414;10.362;2022-12-07T01:40:09;10.87;;;8.53;;
18693;SDS011;9477;51.414;10.362;2022-12-07T01:42:12;11.97;;;9.40;;
18693;SDS011;9477;51.414;10.362;2022-12-07T01:44:17;11.23;;;8.90;;
18693;SDS011;9477;51.414;10.362;2022-12-07T01:46:22;11.10;;;8.47;;
18693;SDS011;9477;51.414;10.362;2022-12-07T01:48:26;9.30;;;7.90;;
18693;SDS011;9477;51.414;10.362;2022-12-07T01:50:34;11.20;;;8.70;;
18693;SDS011;9477;51.414;10.362;2022-12-07T01:52:38;10.03;;;7.37;;
18693;SDS011;9477;51.414;10.362;2022-12-07T01:54:43;10.37;;;7.50;;
18693;SDS011;9477;51.414;10.362;2022-12-07T01:56:49;9.90;;;7.40;;
18693;SDS011;9477;51.414;10.362;2022-12-07T01:58:54;9.03;;;7.60;;
18693;SDS011;9477;51.414;10.362;2022-12-07T02:00:57;9.93;;;7.67;;
18693;SDS011;9477;51.414;10.362;2022-12-07T02:03:05;12.80;;;7.60;;
18693;SDS011;9477;51.414;10.362;2022-12-07T02:05:11;12.13;;;7.67;;
18693;SDS011;9477;51.414;10.362;2022-12-07T02:07:16;12.33;;;8.87;;
18693;SDS011;9477;51.414;10.362;2022-12-07T02:09:19;10.20;;;7.97;;
18693;SDS011;9477;51.414;10.362;2022-12-07T02:11:22;10.37;;;7.47;;
18693;SDS011;9477;51.414;10.362;2022-12-07T02:13:26;9.83;;;8.03;;
18693;SDS011;9477;51.414;10.362;2022-12-07T02:15:34;11.07;;;7.93;;
18693;SDS011;9477;51.414;10.362;2022-12-07T02:17:46;11.43;;;8.63;;
18693;SDS011;9477;51.414;10.362;2022-12-07T02:20:00;11.13;;;8.20;;
18693;SDS011;9477;51.414;10.362;2022-12-07T02:22:18;11.33;;;8.40;;
18693;SDS011;9477;51.414;10.362;2022-12-07T02:24:44;10.70;;;8.03;;
18693;SDS011;9477;51.414;10.362;2022-12-07T02:27:05;10.73;;;7.70;;
18693;SDS011;9477;51.414;10.362;2022-12-07T02:29:23;11.83;;;7.97;;
18693;SDS011;9477;51.414;10.362;2022-12-07T02:31:29;10.67;;;7.80;;
18693;SDS011;9477;51.414;10.362;2022-12-07T02:33:34;9.83;;;7.90;;
18693;SDS011;9477;51.414;10.362;2022-12-07T02:35:39;13.33;;;8.70;;
18693;SDS011;9477;51.414;10.362;2022-12-07T02:37:48;10.60;;;8.33;;
18693;SDS011;9477;51.414;10.362;2022-12-07T02:39:59;8.13;;;6.90;;
18693;SDS011;9477;51.414;10.362;2022-12-07T02:42:07;9.03;;;6.80;;
18693;SDS011;9477;51.414;10.362;2022-12-07T02:44:16;7.67;;;6.73;;
18693;SDS011;9477;51.414;10.362;2022-12-07T02:46:24;8.53;;;6.93;;
18693;SDS011;9477;51.414;10.362;2022-12-07T02:48:31;7.87;;;6.40;;
18693;SDS011;9477;51.414;10.362;2022-12-07T02:50:35;7.10;;;5.93;;
18693;SDS011;9477;51.414;10.362;2022-12-07T02:52:38;7.93;;;6.83;;
18693;SDS011;9477;51.414;10.362;2022-12-07T02:54:40;8.53;;;7.10;;
18693;SDS011;9477;51.414;10.362;2022-12-07T02:56:45;10.60;;;7.73;;
18693;SDS011;9477;51.414;10.362;2022-12-07T02:58:53;8.80;;;7.10;;
18693;SDS011;9477;51.414;10.362;2022-12-07T03:01:04;9.13;;;6.93;;
18693;SDS011;9477;51.414;10.362;2022-12-07T03:03:17;10.23;;;7.63;;
18693;SDS011;9477;51.414;10.362;2022-12-07T03:05:29;9.03;;;7.03;;
18693;SDS011;9477;51.414;10.362;2022-12-07T03:07:43;8.33;;;6.80;;
18693;SDS011;9477;51.414;10.362;2022-12-07T03:09:55;10.53;;;7.90;;
18693;SDS011;9477;51.414;10.362;2022-12-07T03:12:06;11.33;;;7.53;;
18693;SDS011;9477;51.414;10.362;2022-12-07T03:14:15;7.37;;;6.03;;
18693;SDS011;9477;51.414;10.362;2022-12-07T03:16:23;11.37;;;8.00;;
18693;SDS011;9477;51.414;10.362;2022-12-07T03:18:32;12.10;;;8.60;;
18693;SDS011;9477;51.414;10.362;2022-12-07T03:20:40;12.63;;;8.73;;
18693;SDS011;9477;51.414;10.362;2022-12-07T03:22:45;12.77;;;8.67;;
18693;SDS011;9477;51.414;10.362;2022-12-07T03:24:50;13.97;;;9.87;;
18693;SDS011;9477;51.414;10.362;2022-12-07T03:26:56;11.23;;;9.17;;
18693;SDS011;9477;51.414;10.362;2022-12-07T03:29:05;13.43;;;9.27;;
18693;SDS011;9477;51.414;10.362;2022-12-07T03:31:14;14.70;;;10.13;;
18693;SDS011;9477;51.414;10.362;2022-12-07T03:33:22;10.10;;;8.17;;
18693;SDS011;9477;51.414;10.362;2022-12-07T03:35:30;12.00;;;8.70;;
18693;SDS011;9477;51.414;10.362;2022-12-07T03:37:38;14.20;;;10.43;;
18693;SDS011;9477;51.414;10.362;2022-12-07T03:39:46;12.90;;;9.43;;
18693;SDS011;9477;51.414;10.362;2022-12-07T03:41:58;17.50;;;10.90;;
18693;SDS011;9477;51.414;10.362;2022-12-07T03:44:04;15.17;;;11.20;;
18693;SDS011;9477;51.414;10.362;2022-12-07T03:46:14;14.57;;;10.30;;
18693;SDS011;9477;51.414;10.362;2022-12-07T03:48:24;15.40;;;10.27;;
18693;SDS011;9477;51.414;10.362;2022-12-07T03:50:32;14.83;;;10.57;;
18693;SDS011;9477;51.414;10.362;2022-12-07T03:52:44;13.50;;;9.87;;
18693;SDS011;9477;51.414;10.362;2022-12-07T03:54:53;13.10;;;9.10;;
18693;SDS011;9477;51.414;10.362;2022-12-07T03:57:00;11.70;;;8.77;;
18693;SDS011;9477;51.414;10.362;2022-12-07T03:59:04;17.10;;;11.43;;
18693;SDS011;9477;51.414;10.362;2022-12-07T04:01:10;15.87;;;11.27;;
18693;SDS011;9477;51.414;10.362;2022-12-07T04:03:13;14.30;;;9.93;;
18693;SDS011;9477;51.414;10.362;2022-12-07T04:05:16;17.80;;;11.67;;
18693;SDS011;9477;51.414;10.362;2022-12-07T04:07:20;14.57;;;11.13;;
18693;SDS011;9477;51.414;10.362;2022-12-07T04:09:23;13.00;;;9.20;;
18693;SDS011;9477;51.414;10.362;2022-12-07T04:11:26;14.37;;;10.63;;
18693;SDS011;9477;51.414;10.362;2022-12-07T04:13:29;16.13;;;11.30;;
18693;SDS011;9477;51.414;10.362;2022-12-07T04:15:52;13.90;;;10.27;;
18693;SDS011;9477;51.414;10.362;2022-12-07T04:17:55;13.73;;;10.30;;
18693;SDS011;9477;51.414;10.362;2022-12-07T04:19:58;16.17;;;11.03;;
18693;SDS011;9477;51.414;10.362;2022-12-07T04:22:02;16.40;;;10.87;;
18693;SDS011;9477;51.414;10.362;2022-12-07T04:24:08;12.80;;;9.77;;
18693;SDS011;9477;51.414;10.362;2022-12-07T04:26:11;16.93;;;10.93;;
18693;SDS011;9477;51.414;10.362;2022-12-07T04:28:14;13.70;;;9.60;;
18693;SDS011;9477;51.414;10.362;2022-12-07T04:30:17;14.50;;;10.40;;
18693;SDS011;9477;51.414;10.362;2022-12-07T04:32:20;16.30;;;10.73;;
18693;SDS011;9477;51.414;10.362;2022-12-07T04:34:23;14.93;;;10.53;;
18693;SDS011;9477;51.414;10.362;2022-12-07T04:36:25;13.80;;;10.00;;
18693;SDS011;9477;51.414;10.362;2022-12-07T04:38:28;15.60;;;10.43;;
18693;SDS011;9477;51.414;10.362;2022-12-07T04:40:33;14.10;;;10.23;;
18693;SDS011;9477;51.414;10.362;2022-12-07T04:42:36;16.80;;;11.93;;
18693;SDS011;9477;51.414;10.362;2022-12-07T04:44:39;10.70;;;8.23;;
18693;SDS011;9477;51.414;10.362;2022-12-07T04:46:42;13.80;;;10.03;;
18693;SDS011;9477;51.414;10.362;2022-12-07T04:48:45;15.70;;;11.57;;
18693;SDS011;9477;51.414;10.362;2022-12-07T04:50:48;16.20;;;10.73;;
18693;SDS011;9477;51.414;10.362;2022-12-07T04:52:51;16.07;;;12.13;;
18693;SDS011;9477;51.414;10.362;2022-12-07T04:54:54;21.20;;;12.07;;
18693;SDS011;9477;51.414;10.362;2022-12-07T04:56:58;20.13;;;13.03;;
18693;SDS011;9477;51.414;10.362;2022-12-07T04:59:02;16.20;;;11.10;;
18693;SDS011;9477;51.414;10.362;2022-12-07T05:01:05;19.53;;;11.70;;
18693;SDS011;9477;51.414;10.362;2022-12-07T05:03:08;14.17;;;8.87;;
18693;SDS011;9477;51.414;10.362;2022-12-07T05:05:11;16.73;;;12.27;;
18693;SDS011;9477;51.414;10.362;2022-12-07T05:07:14;19.70;;;12.50;;
18693;SDS011;9477;51.414;10.362;2022-12-07T05:09:17;19.90;;;13.03;;
18693;SDS011;9477;51.414;10.362;2022-12-07T05:11:20;17.93;;;12.87;;
18693;SDS011;9477;51.414;10.362;2022-12-07T05:13:42;19.43;;;12.07;;
18693;SDS011;9477;51.414;10.362;2022-12-07T05:15:46;18.80;;;11.90;;
18693;SDS011;9477;51.414;10.362;2022-12-07T05:17:49;18.80;;;11.83;;
18693;SDS011;9477;51.414;10.362;2022-12-07T05:19:53;16.13;;;11.40;;
18693;SDS011;9477;51.414;10.362;2022-12-07T05:21:56;19.37;;;12.73;;
18693;SDS011;9477;51.414;10.362;2022-12-07T05:23:59;18.73;;;12.33;;
18693;SDS011;9477;51.414;10.362;2022-12-07T05:26:02;18.77;;;12.53;;
18693;SDS011;9477;51.414;10.362;2022-12-07T05:28:05;20.33;;;13.27;;
18693;SDS011;9477;51.414;10.362;2022-12-07T05:30:10;18.37;;;12.77;;
18693;SDS011;9477;51.414;10.362;2022-12-07T05:32:13;18.77;;;11.33;;
18693;SDS011;9477;51.414;10.362;2022-12-07T05:34:16;20.67;;;13.40;;
18693;SDS011;9477;51.414;10.362;2022-12-07T05:36:19;22.73;;;13.30;;
18693;SDS011;9477;51.414;10.362;2022-12-07T05:38:22;20.77;;;12.60;;
18693;SDS011;9477;51.414;10.362;2022-12-07T05:40:26;23.27;;;12.93;;
18693;SDS011;9477;51.414;10.362;2022-12-07T05:42:28;18.47;;;13.03;;
18693;SDS011;9477;51.414;10.362;2022-12-07T05:44:31;18.03;;;12.70;;
18693;SDS011;9477;51.414;10.362;2022-12-07T05:46:35;19.50;;;12.50;;
18693;SDS011;9477;51.414;10.362;2022-12-07T05:48:38;20.90;;;13.70;;
18693;SDS011;9477;51.414;10.362;2022-12-07T05:50:41;21.17;;;13.73;;
18693;SDS011;9477;51.414;10.362;2022-12-07T05:52:44;17.53;;;12.30;;
18693;SDS011;9477;51.414;10.362;2022-12-07T05:54:47;24.13;;;13.30;;
18693;SDS011;9477;51.414;10.362;2022-12-07T05:56:50;24.53;;;13.07;;
18693;SDS011;9477;51.414;10.362;2022-12-07T05:58:53;21.27;;;12.60;;
18693;SDS011;9477;51.414;10.362;2022-12-07T06:01:13;21.23;;;12.60;;
18693;SDS011;9477;51.414;10.362;2022-12-07T06:03:18;27.37;;;14.53;;
18693;SDS011;9477;51.414;10.362;2022-12-07T06:05:21;22.73;;;12.80;;
18693;SDS011;9477;51.414;10.362;2022-12-07T06:07:24;22.10;;;14.17;;
18693;SDS011;9477;51.414;10.362;2022-12-07T06:09:27;22.07;;;14.90;;
18693;SDS011;9477;51.414;10.362;2022-12-07T06:11:30;23.00;;;12.57;;
18693;SDS011;9477;51.414;10.362;2022-12-07T06:13:51;20.77;;;12.60;;
18693;SDS011;9477;51.414;10.362;2022-12-07T06:15:54;18.17;;;11.77;;
18693;SDS011;9477;51.414;10.362;2022-12-07T06:17:57;19.80;;;11.37;;
18693;SDS011;9477;51.414;10.362;2022-12-07T06:20:01;19.53;;;13.53;;
18693;SDS011;9477;51.414;10.362;2022-12-07T06:22:05;19.13;;;12.27;;
18693;SDS011;9477;51.414;10.362;2022-12-07T06:24:09;18.27;;;13.07;;
18693;SDS011;9477;51.414;10.362;2022-12-07T06:26:12;19.10;;;12.33;;
18693;SDS011;9477;51.414;10.362;2022-12-07T06:28:16;18.40;;;11.27;;
18693;SDS011;9477;51.414;10.362;2022-12-07T06:30:19;17.33;;;12.30;;
18693;SDS011;9477;51.414;10.362;2022-12-07T06:32:22;16.67;;;11.73;;
18693;SDS011;9477;51.414;10.362;2022-12-07T06:34:25;21.00;;;12.37;;
18693;SDS011;9477;51.414;10.362;2022-12-07T06:36:30;23.47;;;11.40;;
18693;SDS011;9477;51.414;10.362;2022-12-07T06:38:32;15.67;;;11.20;;
18693;SDS011;9477;51.414;10.362;2022-12-07T06:40:35;18.30;;;11.80;;
18693;SDS011;9477;51.414;10.362;2022-12-07T06:42:38;22.10;;;11.40;;
18693;SDS011;9477;51.414;10.362;2022-12-07T06:44:41;17.33;;;10.20;;
18693;SDS011;9477;51.414;10.362;2022-12-07T06:46:44;17.40;;;10.67;;
18693;SDS011;9477;51.414;10.362;2022-12-07T06:48:47;19.87;;;12.63;;
18693;SDS011;9477;51.414;10.362;2022-12-07T06:50:50;17.80;;;12.23;;
18693;SDS011;9477;51.414;10.362;2022-12-07T06:52:57;21.43;;;12.23;;
18693;SDS011;9477;51.414;10.362;2022-12-07T06:54:59;17.73;;;11.47;;
18693;SDS011;9477;51.414;10.362;2022-12-07T06:57:02;19.73;;;11.57;;
18693;SDS011;9477;51.414;10.362;2022-12-07T06:59:05;18.17;;;11.00;;
18693;SDS011;9477;51.414;10.362;2022-12-07T07:01:09;18.37;;;11.47;;
18693;SDS011;9477;51.414;10.362;2022-12-07T07:03:13;17.60;;;10.20;;
18693;SDS011;9477;51.414;10.362;2022-12-07T07:05:16;14.60;;;10.03;;
18693;SDS011;9477;51.414;10.362;2022-12-07T07:07:19;18.80;;;11.73;;
18693;SDS011;9477;51.414;10.362;2022-12-07T07:09:23;15.93;;;9.47;;
18693;SDS011;9477;51.414;10.362;2022-12-07T07:11:27;15.73;;;10.60;;
18693;SDS011;9477;51.414;10.362;2022-12-07T07:13:30;16.03;;;9.50;;
18693;SDS011;9477;51.414;10.362;2022-12-07T07:15:33;18.77;;;10.40;;
18693;SDS011;9477;51.414;10.362;2022-12-07T07:17:36;15.67;;;9.20;;
18693;SDS011;9477;51.414;10.362;2022-12-07T07:19:39;22.77;;;9.33;;
18693;SDS011;9477;51.414;10.362;2022-12-07T07:21:42;18.43;;;10.90;;
18693;SDS011;9477;51.414;10.362;2022-12-07T07:23:45;16.37;;;9.20;;
18693;SDS011;9477;51.414;10.362;2022-12-07T07:25:49;14.10;;;8.57;;
18693;SDS011;9477;51.414;10.362;2022-12-07T07:27:52;13.40;;;8.83;;
18693;SDS011;9477;51.414;10.362;2022-12-07T07:29:55;19.03;;;9.30;;
18693;SDS011;9477;51.414;10.362;2022-12-07T07:31:58;13.23;;;8.60;;
18693;SDS011;9477;51.414;10.362;2022-12-07T07:34:07;15.47;;;8.80;;
18693;SDS011;9477;51.414;10.362;2022-12-07T07:36:10;11.17;;;6.40;;
18693;SDS011;9477;51.414;10.362;2022-12-07T07:38:12;11.90;;;7.17;;
18693;SDS011;9477;51.414;10.362;2022-12-07T07:40:15;14.00;;;7.67;;
18693;SDS011;9477;51.414;10.362;2022-12-07T07:42:20;13.47;;;6.97;;
18693;SDS011;9477;51.414;10.362;2022-12-07T07:44:23;14.47;;;7.63;;
18693;SDS011;9477;51.414;10.362;2022-12-07T07:46:33;11.27;;;7.10;;
18693;SDS011;9477;51.414;10.362;2022-12-07T07:48:36;12.60;;;7.27;;
18693;SDS011;9477;51.414;10.362;2022-12-07T07:50:39;15.13;;;6.80;;
18693;SDS011;9477;51.414;10.362;2022-12-07T07:52:42;16.63;;;7.87;;
18693;SDS011;9477;51.414;10.362;2022-12-07T07:54:45;12.37;;;7.77;;
18693;SDS011;9477;51.414;10.362;2022-12-07T07:56:48;13.33;;;8.03;;
18693;SDS011;9477;51.414;10.362;2022-12-07T07:58:52;14.10;;;7.83;;
18693;SDS011;9477;51.414;10.362;2022-12-07T08:00:56;9.40;;;6.80;;
18693;SDS011;9477;51.414;10.362;2022-12-07T08:02:59;9.30;;;6.90;;
18693;SDS011;9477;51.414;10.362;2022-12-07T08:05:02;15.80;;;7.87;;
18693;SDS011;9477;51.414;10.362;2022-12-07T08:07:05;10.07;;;6.67;;
18693;SDS011;9477;51.414;10.362;2022-12-07T08:09:08;13.43;;;7.10;;
18693;SDS011;9477;51.414;10.362;2022-12-07T08:11:11;10.33;;;6.93;;
18693;SDS011;9477;51.414;10.362;2022-12-07T08:13:14;11.13;;;6.87;;
18693;SDS011;9477;51.414;10.362;2022-12-07T08:15:19;11.60;;;7.00;;
18693;SDS011;9477;51.414;10.362;2022-12-07T08:17:22;12.00;;;7.50;;
18693;SDS011;9477;51.414;10.362;2022-12-07T08:19:25;10.37;;;6.93;;
18693;SDS011;9477;51.414;10.362;2022-12-07T08:21:27;14.07;;;8.33;;
18693;SDS011;9477;51.414;10.362;2022-12-07T08:23:30;12.50;;;7.23;;
18693;SDS011;9477;51.414;10.362;2022-12-07T08:25:40;12.87;;;7.90;;
18693;SDS011;9477;51.414;10.362;2022-12-07T08:27:42;11.03;;;5.83;;
18693;SDS011;9477;51.414;10.362;2022-12-07T08:29:45;10.77;;;7.17;;
18693;SDS011;9477;51.414;10.362;2022-12-07T08:31:49;9.30;;;6.07;;
18693;SDS011;9477;51.414;10.362;2022-12-07T08:33:52;16.00;;;6.63;;
18693;SDS011;9477;51.414;10.362;2022-12-07T08:35:59;13.33;;;6.53;;
18693;SDS011;9477;51.414;10.362;2022-12-07T08:38:02;7.23;;;5.83;;
18693;SDS011;9477;51.414;10.362;2022-12-07T08:40:06;8.73;;;5.93;;
18693;SDS011;9477;51.414;10.362;2022-12-07T08:42:11;11.60;;;6.47;;
18693;SDS011;9477;51.414;10.362;2022-12-07T08:44:14;10.33;;;6.13;;
18693;SDS011;9477;51.414;10.362;2022-12-07T08:46:18;12.03;;;6.73;;
18693;SDS011;9477;51.414;10.362;2022-12-07T08:48:25;9.73;;;5.30;;
18693;SDS011;9477;51.414;10.362;2022-12-07T08:50:28;9.07;;;4.70;;
18693;SDS011;9477;51.414;10.362;2022-12-07T08:52:31;10.33;;;5.30;;
18693;SDS011;9477;51.414;10.362;2022-12-07T08:54:36;8.60;;;4.23;;
18693;SDS011;9477;51.414;10.362;2022-12-07T08:56:41;10.90;;;4.37;;
18693;SDS011;9477;51.414;10.362;2022-12-07T08:58:44;8.57;;;4.97;;
18693;SDS011;9477;51.414;10.362;2022-12-07T09:00:47;8.03;;;4.90;;
18693;SDS011;9477;51.414;10.362;2022-12-07T09:02:50;8.47;;;4.87;;
18693;SDS011;9477;51.414;10.362;2022-12-07T09:04:54;9.17;;;4.73;;
18693;SDS011;9477;51.414;10.362;2022-12-07T09:06:57;7.80;;;4.43;;
18693;SDS011;9477;51.414;10.362;2022-12-07T09:09:01;13.67;;;4.57;;
18693;SDS011;9477;51.414;10.362;2022-12-07T09:11:05;8.80;;;4.97;;
18693;SDS011;9477;51.414;10.362;2022-12-07T09:13:07;9.70;;;4.67;;
18693;SDS011;9477;51.414;10.362;2022-12-07T09:15:10;12.73;;;4.00;;
18693;SDS011;9477;51.414;10.362;2022-12-07T09:17:13;15.37;;;4.80;;
18693;SDS011;9477;51.414;10.362;2022-12-07T09:19:16;7.77;;;4.63;;
18693;SDS011;9477;51.414;10.362;2022-12-07T09:21:20;10.23;;;4.80;;
18693;SDS011;9477;51.414;10.362;2022-12-07T09:23:23;8.97;;;4.90;;
18693;SDS011;9477;51.414;10.362;2022-12-07T09:25:26;9.67;;;4.73;;
18693;SDS011;9477;51.414;10.362;2022-12-07T09:27:29;15.07;;;8.93;;
18693;SDS011;9477;51.414;10.362;2022-12-07T09:29:32;10.60;;;7.13;;
18693;SDS011;9477;51.414;10.362;2022-12-07T09:31:35;8.17;;;5.00;;
18693;SDS011;9477;51.414;10.362;2022-12-07T09:33:39;9.67;;;4.80;;
18693;SDS011;9477;51.414;10.362;2022-12-07T09:35:44;11.10;;;4.77;;
18693;SDS011;9477;51.414;10.362;2022-12-07T09:37:48;6.80;;;4.47;;
18693;SDS011;9477;51.414;10.362;2022-12-07T09:39:51;8.10;;;3.83;;
18693;SDS011;9477;51.414;10.362;2022-12-07T09:41:54;5.90;;;3.60;;
18693;SDS011;9477;51.414;10.362;2022-12-07T09:44:02;12.67;;;4.70;;
18693;SDS011;9477;51.414;10.362;2022-12-07T09:46:08;9.87;;;4.30;;
18693;SDS011;9477;51.414;10.362;2022-12-07T09:48:18;8.43;;;5.07;;
18693;SDS011;9477;51.414;10.362;2022-12-07T09:50:24;8.07;;;5.00;;
18693;SDS011;9477;51.414;10.362;2022-12-07T09:52:29;5.87;;;3.97;;
18693;SDS011;9477;51.414;10.362;2022-12-07T09:54:41;7.50;;;4.73;;
18693;SDS011;9477;51.414;10.362;2022-12-07T09:56:47;9.50;;;4.40;;
18693;SDS011;9477;51.414;10.362;2022-12-07T09:58:58;6.20;;;4.00;;
18693;SDS011;9477;51.414;10.362;2022-12-07T10:01:05;10.43;;;4.60;;
18693;SDS011;9477;51.414;10.362;2022-12-07T10:03:14;6.70;;;3.63;;
18693;SDS011;9477;51.414;10.362;2022-12-07T10:05:19;7.40;;;4.20;;
18693;SDS011;9477;51.414;10.362;2022-12-07T10:07:25;9.13;;;4.37;;
18693;SDS011;9477;51.414;10.362;2022-12-07T10:09:28;6.80;;;3.87;;
18693;SDS011;9477;51.414;10.362;2022-12-07T10:14:11;7.93;;;4.63;;
18693;SDS011;9477;51.414;10.362;2022-12-07T10:18:40;5.57;;;4.13;;
18693;SDS011;9477;51.414;10.362;2022-12-07T10:20:43;11.20;;;4.83;;
18693;SDS011;9477;51.414;10.362;2022-12-07T10:22:54;8.57;;;3.77;;
18693;SDS011;9477;51.414;10.362;2022-12-07T10:25:13;4.80;;;3.73;;
18693;SDS011;9477;51.414;10.362;2022-12-07T10:27:26;9.27;;;4.60;;
18693;SDS011;9477;51.414;10.362;2022-12-07T10:29:33;8.20;;;4.30;;
18693;SDS011;9477;51.414;10.362;2022-12-07T10:31:39;7.43;;;4.33;;
18693;SDS011;9477;51.414;10.362;2022-12-07T10:33:48;8.70;;;5.27;;
18693;SDS011;9477;51.414;10.362;2022-12-07T10:35:52;9.60;;;4.53;;
18693;SDS011;9477;51.414;10.362;2022-12-07T10:37:56;10.47;;;5.10;;
18693;SDS011;9477;51.414;10.362;2022-12-07T10:40:00;5.87;;;3.63;;
18693;SDS011;9477;51.414;10.362;2022-12-07T10:42:03;9.73;;;4.87;;
18693;SDS011;9477;51.414;10.362;2022-12-07T10:44:08;10.20;;;4.50;;
18693;SDS011;9477;51.414;10.362;2022-12-07T10:49:23;5.27;;;3.80;;
18693;SDS011;9477;51.414;10.362;2022-12-07T10:52:00;5.10;;;3.33;;
18693;SDS011;9477;51.414;10.362;2022-12-07T10:54:14;6.63;;;3.77;;
18693;SDS011;9477;51.414;10.362;2022-12-07T10:58:56;3.87;;;2.63;;
18693;SDS011;9477;51.414;10.362;2022-12-07T11:01:13;8.07;;;4.10;;
18693;SDS011;9477;51.414;10.362;2022-12-07T11:03:32;6.67;;;4.00;;
18693;SDS011;9477;51.414;10.362;2022-12-07T11:05:43;9.73;;;4.00;;
18693;SDS011;9477;51.414;10.362;2022-12-07T11:07:56;9.10;;;4.03;;
18693;SDS011;9477;51.414;10.362;2022-12-07T11:10:06;6.60;;;3.90;;
18693;SDS011;9477;51.414;10.362;2022-12-07T11:12:16;7.23;;;4.23;;
18693;SDS011;9477;51.414;10.362;2022-12-07T11:14:28;7.17;;;3.57;;
18693;SDS011;9477;51.414;10.362;2022-12-07T11:16:41;7.50;;;4.07;;
18693;SDS011;9477;51.414;10.362;2022-12-07T11:18:59;6.33;;;3.20;;
18693;SDS011;9477;51.414;10.362;2022-12-07T11:21:17;5.33;;;3.20;;
18693;SDS011;9477;51.414;10.362;2022-12-07T11:23:27;4.57;;;3.07;;
18693;SDS011;9477;51.414;10.362;2022-12-07T11:25:36;5.43;;;3.20;;
18693;SDS011;9477;51.414;10.362;2022-12-07T11:27:47;6.93;;;3.63;;
18693;SDS011;9477;51.414;10.362;2022-12-07T11:30:02;5.27;;;3.37;;
18693;SDS011;9477;51.414;10.362;2022-12-07T11:32:15;5.37;;;3.33;;
18693;SDS011;9477;51.414;10.362;2022-12-07T11:34:24;13.07;;;3.57;;
18693;SDS011;9477;51.414;10.362;2022-12-07T11:36:37;4.63;;;2.80;;
18693;SDS011;9477;51.414;10.362;2022-12-07T11:38:44;6.10;;;3.20;;
18693;SDS011;9477;51.414;10.362;2022-12-07T11:40:53;3.30;;;2.27;;
18693;SDS011;9477;51.414;10.362;2022-12-07T11:43:15;6.57;;;3.47;;
18693;SDS011;9477;51.414;10.362;2022-12-07T11:45:24;8.17;;;3.43;;
18693;SDS011;9477;51.414;10.362;2022-12-07T11:47:34;6.50;;;3.60;;
18693;SDS011;9477;51.414;10.362;2022-12-07T11:49:44;8.40;;;3.17;;
18693;SDS011;9477;51.414;10.362;2022-12-07T11:51:53;7.97;;;3.17;;
18693;SDS011;9477;51.414;10.362;2022-12-07T11:54:01;6.57;;;3.10;;
18693;SDS011;9477;51.414;10.362;2022-12-07T11:56:08;7.20;;;3.10;;
18693;SDS011;9477;51.414;10.362;2022-12-07T11:58:18;5.50;;;2.50;;
18693;SDS011;9477;51.414;10.362;2022-12-07T12:00:28;8.57;;;3.13;;
18693;SDS011;9477;51.414;10.362;2022-12-07T12:02:35;6.50;;;2.90;;
18693;SDS011;9477;51.414;10.362;2022-12-07T12:04:48;6.13;;;2.83;;
18693;SDS011;9477;51.414;10.362;2022-12-07T12:06:56;8.07;;;3.57;;
18693;SDS011;9477;51.414;10.362;2022-12-07T12:09:20;5.47;;;2.67;;
18693;SDS011;9477;51.414;10.362;2022-12-07T12:11:39;5.93;;;3.17;;
18693;SDS011;9477;51.414;10.362;2022-12-07T12:14:19;5.53;;;3.03;;
18693;SDS011;9477;51.414;10.362;2022-12-07T12:16:39;7.70;;;3.07;;
18693;SDS011;9477;51.414;10.362;2022-12-07T12:19:02;5.93;;;3.00;;
18693;SDS011;9477;51.414;10.362;2022-12-07T12:21:15;9.23;;;3.03;;
18693;SDS011;9477;51.414;10.362;2022-12-07T12:23:20;8.97;;;3.30;;
18693;SDS011;9477;51.414;10.362;2022-12-07T12:25:27;14.23;;;6.33;;
18693;SDS011;9477;51.414;10.362;2022-12-07T12:27:34;9.07;;;4.13;;
18693;SDS011;9477;51.414;10.362;2022-12-07T12:29:39;7.60;;;3.07;;
18693;SDS011;9477;51.414;10.362;2022-12-07T12:31:46;7.47;;;3.30;;
18693;SDS011;9477;51.414;10.362;2022-12-07T12:33:50;6.67;;;2.90;;
18693;SDS011;9477;51.414;10.362;2022-12-07T12:38:26;5.50;;;3.07;;
18693;SDS011;9477;51.414;10.362;2022-12-07T12:40:39;11.47;;;2.93;;
18693;SDS011;9477;51.414;10.362;2022-12-07T12:42:52;6.57;;;2.90;;